sensor_id;sensor_type;location;lat;lon;timestamp;pressure;altitude;pressure_sealevel;temperature;humidity
29315;BME280;16320;53.954;9.506;2022-10-16T00:06:55;100803.00;;;12.71;100.00
29315;BME280;16320;53.954;9.506;2022-10-16T00:10:50;100800.25;;;12.72;100.00
29315;BME280;16320;53.954;9.506;2022-10-16T00:14:41;100800.16;;;12.74;100.00
29315;BME280;16320;53.954;9.506;2022-10-16T00:18:10;100795.81;;;12.73;100.00
29315;BME280;16320;53.954;9.506;2022-10-16T00:21:34;100795.00;;;12.72;100.00
29315;BME280;16320;53.954;9.506;2022-10-16T00:29:10;100790.72;;;12.70;100.00
29315;BME280;16320;53.954;9.506;2022-10-16T00:32:37;100797.91;;;12.68;100.00
29315;BME280;16320;53.954;9.506;2022-10-16T00:35:48;100796.19;;;12.67;100.00
29315;BME280;16320;53.954;9.506;2022-10-16T00:39:17;100791.75;;;12.67;100.00
29315;BME280;16320;53.954;9.506;2022-10-16T00:46:40;100794.47;;;12.66;100.00
29315;BME280;16320;53.954;9.506;2022-10-16T00:54:28;100794.47;;;12.66;100.00
29315;BME280;16320;53.954;9.506;2022-10-16T00:58:06;100805.03;;;12.66;100.00
29315;BME280;16320;53.954;9.506;2022-10-16T01:01:47;100797.31;;;12.62;100.00
29315;BME280;16320;53.954;9.506;2022-10-16T01:05:15;100794.69;;;12.62;100.00
29315;BME280;16320;53.954;9.506;2022-10-16T01:13:32;100788.63;;;12.60;100.00
29315;BME280;16320;53.954;9.506;2022-10-16T01:21:43;100792.06;;;12.62;100.00
29315;BME280;16320;53.954;9.506;2022-10-16T01:28:56;100802.69;;;12.61;100.00
29315;BME280;16320;53.954;9.506;2022-10-16T01:32:50;100798.59;;;12.55;100.00
29315;BME280;16320;53.954;9.506;2022-10-16T01:36:46;100796.94;;;12.54;100.00
29315;BME280;16320;53.954;9.506;2022-10-16T01:40:24;100807.56;;;12.53;100.00
29315;BME280;16320;53.954;9.506;2022-10-16T01:43:43;100795.22;;;12.53;100.00
29315;BME280;16320;53.954;9.506;2022-10-16T01:48:02;100804.06;;;12.52;100.00
29315;BME280;16320;53.954;9.506;2022-10-16T01:51:34;100802.38;;;12.51;100.00
29315;BME280;16320;53.954;9.506;2022-10-16T01:54:43;100791.84;;;12.51;100.00
29315;BME280;16320;53.954;9.506;2022-10-16T01:58:09;100790.13;;;12.50;100.00
29315;BME280;16320;53.954;9.506;2022-10-16T02:02:01;100790.97;;;12.51;100.00
29315;BME280;16320;53.954;9.506;2022-10-16T02:05:41;100789.28;;;12.50;100.00
29315;BME280;16320;53.954;9.506;2022-10-16T02:08:53;100787.50;;;12.50;100.00
29315;BME280;16320;53.954;9.506;2022-10-16T02:12:14;100786.75;;;12.48;100.00
29315;BME280;16320;53.954;9.506;2022-10-16T02:15:38;100792.94;;;12.47;100.00
29315;BME280;16320;53.954;9.506;2022-10-16T02:18:54;100791.22;;;12.46;100.00
29315;BME280;16320;53.954;9.506;2022-10-16T02:22:09;100790.41;;;12.45;100.00
29315;BME280;16320;53.954;9.506;2022-10-16T02:25:27;100787.94;;;12.42;100.00
29315;BME280;16320;53.954;9.506;2022-10-16T02:28:49;100793.19;;;12.42;100.00
29315;BME280;16320;53.954;9.506;2022-10-16T02:32:07;100781.00;;;12.41;100.00
29315;BME280;16320;53.954;9.506;2022-10-16T02:35:49;100786.44;;;12.38;100.00
29315;BME280;16320;53.954;9.506;2022-10-16T02:39:12;100776.91;;;12.36;100.00
29315;BME280;16320;53.954;9.506;2022-10-16T02:42:19;100786.69;;;12.34;100.00
29315;BME280;16320;53.954;9.506;2022-10-16T02:45:24;100784.25;;;12.31;100.00
29315;BME280;16320;53.954;9.506;2022-10-16T02:48:29;100783.56;;;12.27;100.00
29315;BME280;16320;53.954;9.506;2022-10-16T02:52:00;100782.91;;;12.23;100.00
29315;BME280;16320;53.954;9.506;2022-10-16T02:55:12;100781.19;;;12.22;100.00
29315;BME280;16320;53.954;9.506;2022-10-16T02:58:19;100773.38;;;12.21;100.00
29315;BME280;16320;53.954;9.506;2022-10-16T03:02:08;100765.66;;;12.18;100.00
29315;BME280;16320;53.954;9.506;2022-10-16T03:05:33;100772.91;;;12.14;100.00
29315;BME280;16320;53.954;9.506;2022-10-16T03:08:46;100774.78;;;12.12;100.00
29315;BME280;16320;53.954;9.506;2022-10-16T03:12:22;100767.06;;;12.09;100.00
29315;BME280;16320;53.954;9.506;2022-10-16T03:15:26;100771.44;;;12.08;100.00
29315;BME280;16320;53.954;9.506;2022-10-16T03:18:53;100770.69;;;12.06;100.00
29315;BME280;16320;53.954;9.506;2022-10-16T03:22:12;100761.22;;;12.04;100.00
29315;BME280;16320;53.954;9.506;2022-10-16T03:25:24;100760.50;;;12.00;100.00
29315;BME280;16320;53.954;9.506;2022-10-16T03:28:28;100772.84;;;12.00;100.00
29315;BME280;16320;53.954;9.506;2022-10-16T03:31:33;100781.56;;;12.00;100.00
29315;BME280;16320;53.954;9.506;2022-10-16T03:34:39;100779.03;;;11.99;100.00
29315;BME280;16320;53.954;9.506;2022-10-16T03:43:45;100790.69;;;11.95;100.00
29315;BME280;16320;53.954;9.506;2022-10-16T03:47:09;100801.28;;;11.93;100.00
29315;BME280;16320;53.954;9.506;2022-10-16T03:50:47;100792.69;;;11.89;100.00
29315;BME280;16320;53.954;9.506;2022-10-16T03:54:10;100791.06;;;11.87;100.00
29315;BME280;16320;53.954;9.506;2022-10-16T03:57:18;100796.34;;;11.87;100.00
29315;BME280;16320;53.954;9.506;2022-10-16T04:00:25;100800.59;;;11.89;100.00
29315;BME280;16320;53.954;9.506;2022-10-16T04:03:32;100798.75;;;11.92;100.00
29315;BME280;16320;53.954;9.506;2022-10-16T04:06:39;100796.03;;;11.93;100.00
29315;BME280;16320;53.954;9.506;2022-10-16T04:09:59;100799.41;;;11.95;100.00
29315;BME280;16320;53.954;9.506;2022-10-16T04:13:17;100808.94;;;11.98;100.00
29315;BME280;16320;53.954;9.506;2022-10-16T04:16:29;100810.44;;;12.02;100.00
29315;BME280;16320;53.954;9.506;2022-10-16T04:19:37;100812.16;;;12.03;100.00
29315;BME280;16320;53.954;9.506;2022-10-16T04:23:03;100817.25;;;12.06;100.00
29315;BME280;16320;53.954;9.506;2022-10-16T04:30:40;100831.06;;;12.09;100.00
29315;BME280;16320;53.954;9.506;2022-10-16T04:34:11;100827.59;;;12.09;100.00
29315;BME280;16320;53.954;9.506;2022-10-16T04:37:42;100839.81;;;12.10;100.00
29315;BME280;16320;53.954;9.506;2022-10-16T04:40:50;100831.16;;;12.08;100.00
29315;BME280;16320;53.954;9.506;2022-10-16T04:43:55;100830.25;;;12.09;100.00
29315;BME280;16320;53.954;9.506;2022-10-16T04:47:48;100842.44;;;12.10;100.00
29315;BME280;16320;53.954;9.506;2022-10-16T04:51:19;100845.06;;;12.10;100.00
29315;BME280;16320;53.954;9.506;2022-10-16T04:58:34;100846.03;;;12.09;100.00
29315;BME280;16320;53.954;9.506;2022-10-16T05:01:48;100848.66;;;12.09;100.00
29315;BME280;16320;53.954;9.506;2022-10-16T05:05:08;100850.34;;;12.10;100.00
29315;BME280;16320;53.954;9.506;2022-10-16T05:08:48;100859.03;;;12.12;100.00
29315;BME280;16320;53.954;9.506;2022-10-16T05:12:22;100839.81;;;12.10;100.00
29315;BME280;16320;53.954;9.506;2022-10-16T05:15:40;100854.53;;;12.14;100.00
29315;BME280;16320;53.954;9.506;2022-10-16T05:18:47;100854.53;;;12.14;100.00
29315;BME280;16320;53.954;9.506;2022-10-16T05:22:00;100854.53;;;12.14;100.00
29315;BME280;16320;53.954;9.506;2022-10-16T05:25:06;100848.22;;;12.17;100.00
29315;BME280;16320;53.954;9.506;2022-10-16T05:28:15;100851.72;;;12.17;100.00
29315;BME280;16320;53.954;9.506;2022-10-16T05:31:28;100859.78;;;12.14;100.00
29315;BME280;16320;53.954;9.506;2022-10-16T05:34:41;100855.44;;;12.13;100.00
29315;BME280;16320;53.954;9.506;2022-10-16T05:37:48;100852.72;;;12.15;100.00
29315;BME280;16320;53.954;9.506;2022-10-16T05:40:53;100861.59;;;12.14;100.00
29315;BME280;16320;53.954;9.506;2022-10-16T05:44:04;100863.25;;;12.15;100.00
29315;BME280;16320;53.954;9.506;2022-10-16T05:47:18;100864.09;;;12.15;100.00
29315;BME280;16320;53.954;9.506;2022-10-16T05:50:35;100871.91;;;12.17;100.00
29315;BME280;16320;53.954;9.506;2022-10-16T05:53:59;100864.72;;;12.20;100.00
29315;BME280;16320;53.954;9.506;2022-10-16T05:57:29;100860.38;;;12.19;100.00
29315;BME280;16320;53.954;9.506;2022-10-16T06:01:01;100858.50;;;12.21;100.00
29315;BME280;16320;53.954;9.506;2022-10-16T06:04:09;100859.28;;;12.23;100.00
29315;BME280;16320;53.954;9.506;2022-10-16T06:07:14;100874.13;;;12.24;100.00
29315;BME280;16320;53.954;9.506;2022-10-16T06:10:20;100872.25;;;12.26;100.00
29315;BME280;16320;53.954;9.506;2022-10-16T06:13:25;100868.69;;;12.27;100.00
29315;BME280;16320;53.954;9.506;2022-10-16T06:16:29;100882.69;;;12.28;100.00
29315;BME280;16320;53.954;9.506;2022-10-16T06:19:40;100886.19;;;12.29;100.00
29315;BME280;16320;53.954;9.506;2022-10-16T06:22:45;100880.06;;;12.28;100.00
29315;BME280;16320;53.954;9.506;2022-10-16T06:25:49;100886.38;;;12.25;100.00
29315;BME280;16320;53.954;9.506;2022-10-16T06:28:55;100899.38;;;12.29;100.00
29315;BME280;16320;53.954;9.506;2022-10-16T06:32:00;100907.19;;;12.30;100.00
29315;BME280;16320;53.954;9.506;2022-10-16T06:35:05;100910.66;;;12.31;100.00
29315;BME280;16320;53.954;9.506;2022-10-16T06:38:10;100917.47;;;12.35;100.00
29315;BME280;16320;53.954;9.506;2022-10-16T06:41:18;100918.97;;;12.39;100.00
29315;BME280;16320;53.954;9.506;2022-10-16T06:44:26;100938.09;;;12.42;100.00
29315;BME280;16320;53.954;9.506;2022-10-16T06:47:34;100934.44;;;12.45;100.00
29315;BME280;16320;53.954;9.506;2022-10-16T06:50:38;100928.34;;;12.44;100.00
29315;BME280;16320;53.954;9.506;2022-10-16T06:53:49;100944.97;;;12.45;100.00
29315;BME280;16320;53.954;9.506;2022-10-16T06:57:09;100947.63;;;12.45;100.00
29315;BME280;16320;53.954;9.506;2022-10-16T07:00:14;100953.63;;;12.47;100.00
29315;BME280;16320;53.954;9.506;2022-10-16T07:03:18;100964.00;;;12.50;100.00
29315;BME280;16320;53.954;9.506;2022-10-16T07:06:33;100971.91;;;12.50;100.00
29315;BME280;16320;53.954;9.506;2022-10-16T07:09:38;100980.56;;;12.52;100.00
29315;BME280;16320;53.954;9.506;2022-10-16T07:12:47;100994.69;;;12.51;100.00
29315;BME280;16320;53.954;9.506;2022-10-16T07:15:56;100998.34;;;12.49;100.00
29315;BME280;16320;53.954;9.506;2022-10-16T07:19:03;101005.56;;;12.45;100.00
29315;BME280;16320;53.954;9.506;2022-10-16T07:22:08;101005.66;;;12.43;100.00
29315;BME280;16320;53.954;9.506;2022-10-16T07:25:13;101004.63;;;12.46;100.00
29315;BME280;16320;53.954;9.506;2022-10-16T07:28:17;101001.72;;;12.51;100.00
29315;BME280;16320;53.954;9.506;2022-10-16T07:31:23;101011.09;;;12.56;100.00
29315;BME280;16320;53.954;9.506;2022-10-16T07:34:27;101016.78;;;12.64;100.00
29315;BME280;16320;53.954;9.506;2022-10-16T07:37:34;101022.56;;;12.71;100.00
29315;BME280;16320;53.954;9.506;2022-10-16T07:40:38;101017.03;;;12.76;100.00
29315;BME280;16320;53.954;9.506;2022-10-16T07:43:51;101014.41;;;12.76;100.00
29315;BME280;16320;53.954;9.506;2022-10-16T07:46:55;101006.50;;;12.76;100.00
29315;BME280;16320;53.954;9.506;2022-10-16T07:50:00;101000.28;;;12.77;100.00
29315;BME280;16320;53.954;9.506;2022-10-16T07:53:04;100995.44;;;12.85;100.00
29315;BME280;16320;53.954;9.506;2022-10-16T07:56:09;100996.78;;;12.92;100.00
29315;BME280;16320;53.954;9.506;2022-10-16T07:59:14;100996.44;;;12.98;100.00
29315;BME280;16320;53.954;9.506;2022-10-16T08:02:21;101000.50;;;13.04;100.00
29315;BME280;16320;53.954;9.506;2022-10-16T08:05:31;101004.56;;;13.10;100.00
29315;BME280;16320;53.954;9.506;2022-10-16T08:08:36;101006.09;;;13.14;100.00
29315;BME280;16320;53.954;9.506;2022-10-16T08:11:41;101009.28;;;13.19;100.00
29315;BME280;16320;53.954;9.506;2022-10-16T08:14:45;101009.91;;;13.24;100.00
29315;BME280;16320;53.954;9.506;2022-10-16T08:17:56;101018.56;;;13.26;100.00
29315;BME280;16320;53.954;9.506;2022-10-16T08:21:02;101016.84;;;13.25;100.00
29315;BME280;16320;53.954;9.506;2022-10-16T08:24:07;101022.88;;;13.27;100.00
29315;BME280;16320;53.954;9.506;2022-10-16T08:27:12;101027.66;;;13.36;100.00
29315;BME280;16320;53.954;9.506;2022-10-16T08:30:18;101027.31;;;13.43;100.00
29315;BME280;16320;53.954;9.506;2022-10-16T08:33:23;101026.78;;;13.52;100.00
29315;BME280;16320;53.954;9.506;2022-10-16T08:36:27;101031.75;;;13.57;100.00
29315;BME280;16320;53.954;9.506;2022-10-16T08:39:32;101046.84;;;13.54;100.00
29315;BME280;16320;53.954;9.506;2022-10-16T08:46:47;101045.47;;;13.63;100.00
29315;BME280;16320;53.954;9.506;2022-10-16T08:50:00;101052.59;;;13.61;100.00
29315;BME280;16320;53.954;9.506;2022-10-16T08:53:13;101061.13;;;13.66;100.00
29315;BME280;16320;53.954;9.506;2022-10-16T08:56:19;101052.59;;;13.61;100.00
29315;BME280;16320;53.954;9.506;2022-10-16T08:59:23;101056.88;;;13.64;100.00
29315;BME280;16320;53.954;9.506;2022-10-16T09:02:37;101068.44;;;13.61;100.00
29315;BME280;16320;53.954;9.506;2022-10-16T09:09:43;101076.97;;;13.66;100.00
29315;BME280;16320;53.954;9.506;2022-10-16T09:23:59;101091.69;;;13.85;100.00
29315;BME280;16320;53.954;9.506;2022-10-16T09:27:11;101098.47;;;13.89;100.00
29315;BME280;16320;53.954;9.506;2022-10-16T09:30:20;101099.06;;;13.94;100.00
29315;BME280;16320;53.954;9.506;2022-10-16T09:33:36;101105.50;;;14.04;100.00
29315;BME280;16320;53.954;9.506;2022-10-16T09:36:45;101106.25;;;14.06;100.00
29315;BME280;16320;53.954;9.506;2022-10-16T09:39:52;101104.16;;;14.12;100.00
29315;BME280;16320;53.954;9.506;2022-10-16T09:46:32;101112.69;;;14.31;100.00
29315;BME280;16320;53.954;9.506;2022-10-16T09:49:37;101115.22;;;14.33;100.00
29315;BME280;16320;53.954;9.506;2022-10-16T09:52:42;101116.56;;;14.40;100.00
29315;BME280;16320;53.954;9.506;2022-10-16T09:55:51;101122.97;;;14.50;100.00
29315;BME280;16320;53.954;9.506;2022-10-16T09:59:00;101125.75;;;14.63;100.00
29315;BME280;16320;53.954;9.506;2022-10-16T10:02:14;101128.56;;;14.74;100.00
29315;BME280;16320;53.954;9.506;2022-10-16T10:05:24;101126.38;;;14.81;100.00
29315;BME280;16320;53.954;9.506;2022-10-16T10:08:31;101121.72;;;14.85;100.00
29315;BME280;16320;53.954;9.506;2022-10-16T10:11:58;101117.78;;;14.92;100.00
29315;BME280;16320;53.954;9.506;2022-10-16T10:15:13;101127.09;;;14.97;100.00
29315;BME280;16320;53.954;9.506;2022-10-16T10:18:24;101110.66;;;15.07;100.00
29315;BME280;16320;53.954;9.506;2022-10-16T10:21:28;101103.69;;;15.18;100.00
29315;BME280;16320;53.954;9.506;2022-10-16T10:24:33;101093.25;;;15.30;100.00
29315;BME280;16320;53.954;9.506;2022-10-16T10:31:26;101082.16;;;15.65;100.00
29315;BME280;16320;53.954;9.506;2022-10-16T10:38:02;101065.81;;;15.71;100.00
29315;BME280;16320;53.954;9.506;2022-10-16T10:59:30;101074.53;;;15.73;100.00
29315;BME280;16320;53.954;9.506;2022-10-16T11:02:55;101086.22;;;15.83;100.00
29315;BME280;16320;53.954;9.506;2022-10-16T11:06:10;101095.34;;;15.79;100.00
29315;BME280;16320;53.954;9.506;2022-10-16T11:09:24;101095.34;;;15.79;100.00
29315;BME280;16320;53.954;9.506;2022-10-16T11:12:38;101070.13;;;15.86;100.00
29315;BME280;16320;53.954;9.506;2022-10-16T11:15:48;101104.66;;;15.85;100.00
29315;BME280;16320;53.954;9.506;2022-10-16T11:18:59;101122.19;;;15.73;100.00
29315;BME280;16320;53.954;9.506;2022-10-16T11:22:32;101100.78;;;15.63;100.00
29315;BME280;16320;53.954;9.506;2022-10-16T11:25:43;101115.50;;;15.67;100.00
29315;BME280;16320;53.954;9.506;2022-10-16T11:28:58;101112.34;;;15.75;100.00
29315;BME280;16320;53.954;9.506;2022-10-16T11:32:22;101110.94;;;15.69;100.00
29315;BME280;16320;53.954;9.506;2022-10-16T11:39:25;101144.59;;;15.54;100.00
29315;BME280;16320;53.954;9.506;2022-10-16T11:43:04;101158.03;;;15.51;100.00
29315;BME280;16320;53.954;9.506;2022-10-16T11:51:33;101141.19;;;15.25;100.00
29315;BME280;16320;53.954;9.506;2022-10-16T12:06:17;101158.50;;;15.58;100.00
29315;BME280;16320;53.954;9.506;2022-10-16T12:09:32;101159.66;;;15.67;100.00
29315;BME280;16320;53.954;9.506;2022-10-16T12:12:38;101157.56;;;15.72;100.00
29315;BME280;16320;53.954;9.506;2022-10-16T12:15:43;101148.13;;;15.68;100.00
29315;BME280;16320;53.954;9.506;2022-10-16T12:19:13;101154.38;;;15.67;100.00
29315;BME280;16320;53.954;9.506;2022-10-16T12:22:18;101156.38;;;15.63;100.00
29315;BME280;16320;53.954;9.506;2022-10-16T12:25:37;101168.56;;;15.66;100.00
29315;BME280;16320;53.954;9.506;2022-10-16T12:32:33;101179.13;;;15.80;100.00
29315;BME280;16320;53.954;9.506;2022-10-16T12:35:59;101201.50;;;15.89;100.00
29315;BME280;16320;53.954;9.506;2022-10-16T12:39:23;101193.38;;;16.05;100.00
29315;BME280;16320;53.954;9.506;2022-10-16T12:42:38;101173.13;;;16.04;100.00
29315;BME280;16320;53.954;9.506;2022-10-16T12:45:45;101172.03;;;15.93;100.00
29315;BME280;16320;53.954;9.506;2022-10-16T12:48:51;101183.47;;;15.81;100.00
29315;BME280;16320;53.954;9.506;2022-10-16T12:52:38;101183.84;;;15.75;100.00
29315;BME280;16320;53.954;9.506;2022-10-16T12:56:26;101191.28;;;15.55;100.00
29315;BME280;16320;53.954;9.506;2022-10-16T12:59:58;101193.31;;;15.52;100.00
29315;BME280;16320;53.954;9.506;2022-10-16T13:11:18;101239.19;;;15.38;100.00
29315;BME280;16320;53.954;9.506;2022-10-16T13:28:54;101205.69;;;15.79;100.00
29315;BME280;16320;53.954;9.506;2022-10-16T13:32:10;101211.47;;;15.71;100.00
29315;BME280;16320;53.954;9.506;2022-10-16T13:35:28;101234.00;;;15.64;100.00
29315;BME280;16320;53.954;9.506;2022-10-16T13:38:36;101255.78;;;15.54;100.00
29315;BME280;16320;53.954;9.506;2022-10-16T13:41:44;101238.66;;;15.60;100.00
29315;BME280;16320;53.954;9.506;2022-10-16T13:44:52;101249.81;;;15.65;100.00
29315;BME280;16320;53.954;9.506;2022-10-16T13:48:09;101246.41;;;15.63;100.00
29315;BME280;16320;53.954;9.506;2022-10-16T13:51:18;101256.03;;;15.64;100.00
29315;BME280;16320;53.954;9.506;2022-10-16T13:54:34;101269.38;;;15.63;100.00
29315;BME280;16320;53.954;9.506;2022-10-16T13:58:16;101296.81;;;15.62;100.00
29315;BME280;16320;53.954;9.506;2022-10-16T14:06:46;101310.25;;;15.44;100.00
29315;BME280;16320;53.954;9.506;2022-10-16T14:10:56;101329.34;;;15.35;100.00
29315;BME280;16320;53.954;9.506;2022-10-16T16:54:58;101632.69;;;13.19;100.00
29315;BME280;16320;53.954;9.506;2022-10-16T18:25:39;101809.66;;;12.33;100.00
29315;BME280;16320;53.954;9.506;2022-10-16T18:29:43;101823.78;;;12.32;100.00
29315;BME280;16320;53.954;9.506;2022-10-16T18:33:31;101818.88;;;12.22;100.00
29315;BME280;16320;53.954;9.506;2022-10-16T18:37:08;101835.66;;;12.20;100.00
29315;BME280;16320;53.954;9.506;2022-10-16T18:45:57;101853.47;;;12.13;100.00
29315;BME280;16320;53.954;9.506;2022-10-16T18:49:27;101845.59;;;12.13;100.00
29315;BME280;16320;53.954;9.506;2022-10-16T18:57:41;101839.94;;;12.00;100.00
29315;BME280;16320;53.954;9.506;2022-10-16T19:01:08;101846.94;;;12.01;100.00
29315;BME280;16320;53.954;9.506;2022-10-16T19:08:04;101859.19;;;12.02;100.00
29315;BME280;16320;53.954;9.506;2022-10-16T19:12:29;101850.81;;;11.93;100.00
29315;BME280;16320;53.954;9.506;2022-10-16T19:21:42;101846.66;;;11.85;100.00
29315;BME280;16320;53.954;9.506;2022-10-16T20:04:18;101852.75;;;11.64;100.00
29315;BME280;16320;53.954;9.506;2022-10-16T20:08:03;101848.28;;;11.66;100.00
29315;BME280;16320;53.954;9.506;2022-10-16T20:15:51;101867.25;;;11.74;100.00
29315;BME280;16320;53.954;9.506;2022-10-16T20:19:13;101873.47;;;11.73;100.00
29315;BME280;16320;53.954;9.506;2022-10-16T20:22:50;101889.25;;;11.73;100.00
29315;BME280;16320;53.954;9.506;2022-10-16T20:27:02;101892.91;;;11.69;100.00
29315;BME280;16320;53.954;9.506;2022-10-16T20:46:29;101903.25;;;11.73;100.00
29315;BME280;16320;53.954;9.506;2022-10-16T20:49:57;101904.78;;;11.79;100.00
29315;BME280;16320;53.954;9.506;2022-10-16T20:58:40;101902.47;;;11.71;100.00
29315;BME280;16320;53.954;9.506;2022-10-16T21:07:22;101916.47;;;11.72;100.00
29315;BME280;16320;53.954;9.506;2022-10-16T21:11:30;101918.22;;;11.73;100.00
29315;BME280;16320;53.954;9.506;2022-10-16T21:33:47;101945.84;;;11.36;100.00
29315;BME280;16320;53.954;9.506;2022-10-16T21:38:16;101952.75;;;11.39;100.00
29315;BME280;16320;53.954;9.506;2022-10-16T23:34:47;101894.84;;;11.40;100.00
29315;BME280;16320;53.954;9.506;2022-10-16T23:38:57;101872.25;;;11.34;100.00
29315;BME280;16320;53.954;9.506;2022-10-16T23:42:53;101873.78;;;11.40;100.00
29315;BME280;16320;53.954;9.506;2022-10-16T23:51:37;101863.84;;;11.25;100.00
